Flight Track Log - Related Links

Times and Time Zones

All times are in EDT time to prevent confusion due to time zone crossing. See the FLG4057 flight status page for this flight to view local times or setup timezone preferences in your user account.

Time Position Orientation Groundspeed Altitude Reporting Facility
EDT Latitude Longitude Course Direction KTS MPH feet Rate Location/Type
Thu 07:20:49 PM 42.2817 -85.4869 65° Northeast 219 252 3,500  Level Chicago Center
Thu 07:21:51 PM 42.2919 -85.3833 82° East 267 307 6,800 3,414 Climbing Chicago Center
Thu 07:22:45 PM 42.2956 -85.2775 87° East 282 325 10,100 2,263 Climbing Cleveland Center
Thu 07:23:45 PM 42.2531 -85.1928 124° Southeast 256 295 11,100 450 Climbing Cleveland Center
Thu 07:24:45 PM 42.2053 -85.0856 121° Southeast 298 343 11,000 -50 Descending Cleveland Center
Thu 07:25:00 PM 42.2331 -85.0628 90° East  Level Estimated
Thu 07:25:45 PM 42.1592 -84.9786 120° Southeast 315 362 11,000  Level Cleveland Center
Thu 07:26:45 PM 42.1172 -84.8750 119° Southeast 325 374 11,000  Level Cleveland Center
Thu 07:27:45 PM 42.0903 -84.7639 108° East 319 367 11,000  Level Cleveland Center
Thu 07:28:45 PM 42.0778 -84.6456 98° East 314 361 11,000  Level Cleveland Center
Thu 07:29:25 PM 42.0603 -84.5494 104° East 326 375 11,000  Level Cleveland Center
Thu 07:29:45 PM 42.0611 -84.5242 87° East 314 361 11,000  Level Cleveland Center
Thu 07:30:38 PM 42.0483 -84.4114 99° East 328 377 11,000  Level Cleveland Center
Thu 07:31:26 PM 42.0328 -84.3156 102° East 298 343 11,000  Level Cleveland Center
Thu 07:31:45 PM 42.0294 -84.2817 98° East 314 361 11,000  Level Cleveland Center
Thu 07:32:27 PM 42.0214 -84.2086 98° East 290 334 11,000  Level Cleveland Center
Thu 07:32:45 PM 42.0142 -84.1747 106° East 297 342 11,000 -90 Level Cleveland Center
Thu 07:33:34 PM 42.0067 -84.0819 96° East 299 344 10,900 -1,036 Descending Cleveland Center
Thu 07:34:35 PM 41.9931 -83.9833 100° East 273 314 9,100 -1,770 Descending Cleveland Center
Thu 07:35:36 PM 41.9811 -83.8850 99° East 260 299 7,300 -1,033 Descending Cleveland Center
Thu 07:36:37 PM 41.9986 -83.7881 76° East 268 308 7,000 -233 Descending Cleveland Center
Thu 07:37:45 PM 42.0161 -83.6772 78° East 261 300 6,800 -545 Descending Cleveland Center
Thu 07:38:38 PM 42.0181 -83.6075 88° East 203 234 5,900 -1,263 Descending Cleveland Center
Thu 07:39:39 PM 42.0325 -83.5325 75° East 223 257 4,400 -1,086 Descending Cleveland Center
Thu 07:40:34 PM 42.0714 -83.4811 44° Northeast 208 239 3,800 -873 Descending Cleveland Center
Thu 07:41:29 PM 42.1139 -83.4522 27° Northeast 176 203 2,800 -939 Descending Cleveland Center
Thu 07:42:29 PM 42.1478 -83.4258 30° Northeast 128 147 2,000 -744 Descending Cleveland Center
Thu 07:43:30 PM 42.1797 -83.4019 29° Northeast 125 144 1,300 -689 Descending Cleveland Center
Thu 07:45:00 PM 42.2000 -83.3500 48° Northeast  Level FlightAware Approximate

Login

Don't have an account? Register now (free) for customized features, flight alerts, and more!